createdAt,value
2023-03-27T00:00:01.378Z,8.50
2023-03-27T00:02:29.825Z,6.07
2023-03-27T00:04:57.512Z,13.07
2023-03-27T00:07:25.097Z,13.83
2023-03-27T00:09:53.430Z,10.77
2023-03-27T00:12:21.072Z,7.77
2023-03-27T00:14:48.746Z,5.33
2023-03-27T00:17:17.793Z,8.60
2023-03-27T00:19:45.615Z,7.40
2023-03-27T00:22:13.223Z,6.80
2023-03-27T00:24:40.928Z,9.20
2023-03-27T00:27:09.104Z,3.67
2023-03-27T00:29:37.098Z,7.80
2023-03-27T00:32:04.948Z,4.63
2023-03-27T00:34:33.979Z,6.23
2023-03-27T00:37:04.269Z,8.67
2023-03-27T00:39:32.109Z,6.40
2023-03-27T00:41:59.717Z,6.80
2023-03-27T00:44:31.217Z,8.83
2023-03-27T00:46:59.131Z,7.30
2023-03-27T00:49:28.769Z,3.33
2023-03-27T00:51:59.050Z,7.53
2023-03-27T00:54:30.042Z,8.03
2023-03-27T00:57:00.186Z,5.60
2023-03-27T00:59:31.031Z,6.63
2023-03-27T01:01:59.899Z,9.87
2023-03-27T01:04:27.503Z,5.77
2023-03-27T01:06:57.912Z,5.57
2023-03-27T01:09:26.971Z,5.00
2023-03-27T01:12:04.589Z,7.70
2023-03-27T01:14:37.894Z,9.90
2023-03-27T01:17:17.891Z,9.30
2023-03-27T01:20:03.834Z,4.90
2023-03-27T01:22:58.192Z,5.13
2023-03-27T01:25:45.943Z,8.33
2023-03-27T01:28:21.444Z,6.93
2023-03-27T01:30:51.474Z,3.47
2023-03-27T01:33:50.584Z,9.17
2023-03-27T01:36:29.032Z,4.93
2023-03-27T01:39:21.863Z,6.80
2023-03-27T01:41:53.176Z,9.43
2023-03-27T01:44:26.672Z,6.70
2023-03-27T01:47:17.453Z,7.70
2023-03-27T01:49:48.418Z,9.00
2023-03-27T01:52:19.917Z,5.00
2023-03-27T01:54:55.751Z,7.87
2023-03-27T01:57:25.345Z,10.93
2023-03-27T01:59:55.948Z,11.30
2023-03-27T02:02:27.316Z,7.13
2023-03-27T02:04:59.443Z,5.47
2023-03-27T02:07:31.273Z,8.70
2023-03-27T02:10:03.138Z,8.07
2023-03-27T02:12:32.569Z,5.80
2023-03-27T02:15:23.723Z,10.10
2023-03-27T02:17:58.022Z,7.73
2023-03-27T02:20:25.700Z,12.67
2023-03-27T02:22:53.857Z,8.43
2023-03-27T02:25:29.410Z,9.27
2023-03-27T02:28:09.442Z,11.20
2023-03-27T02:30:41.490Z,8.37
2023-03-27T02:33:15.445Z,6.87
2023-03-27T02:35:49.854Z,9.83
2023-03-27T02:38:20.422Z,8.60
2023-03-27T02:40:57.005Z,9.37
2023-03-27T02:43:30.188Z,7.03
2023-03-27T02:46:00.759Z,4.83
2023-03-27T02:48:31.630Z,5.47
2023-03-27T02:51:02.883Z,9.30
2023-03-27T02:53:33.416Z,11.37
2023-03-27T02:56:04.310Z,12.50
2023-03-27T02:58:36.715Z,5.70
2023-03-27T03:01:05.186Z,12.57
2023-03-27T03:03:35.848Z,6.47
2023-03-27T03:06:07.065Z,3.97
2023-03-27T03:08:38.079Z,8.27
2023-03-27T03:11:09.036Z,10.93
2023-03-27T03:13:37.844Z,10.33
2023-03-27T03:16:06.322Z,8.97
2023-03-27T03:18:33.996Z,8.07
2023-03-27T03:21:01.564Z,9.50
2023-03-27T03:23:29.184Z,10.30
2023-03-27T03:25:57.499Z,8.30
2023-03-27T03:28:26.841Z,7.97
2023-03-27T03:30:54.666Z,10.13
2023-03-27T03:33:22.714Z,6.47
2023-03-27T03:35:51.423Z,8.37
2023-03-27T03:38:26.353Z,10.20
2023-03-27T03:40:55.219Z,9.57
2023-03-27T03:43:23.497Z,5.77
2023-03-27T03:45:52.657Z,7.27
2023-03-27T03:48:21.207Z,11.53
2023-03-27T03:50:49.725Z,6.57
2023-03-27T03:53:18.758Z,7.57
2023-03-27T03:55:46.775Z,6.70
2023-03-27T03:58:14.358Z,9.30
2023-03-27T04:00:43.501Z,9.03
2023-03-27T04:03:14.699Z,7.23
2023-03-27T04:05:42.493Z,6.73
2023-03-27T04:08:10.192Z,5.93
2023-03-27T04:10:39.317Z,6.00
2023-03-27T04:13:07.354Z,13.83
2023-03-27T04:15:34.982Z,13.53
2023-03-27T04:18:02.755Z,6.23
2023-03-27T04:20:34.668Z,9.07
2023-03-27T04:23:03.197Z,7.83
2023-03-27T04:25:31.133Z,8.20
2023-03-27T04:27:58.746Z,7.23
2023-03-27T04:30:27.634Z,8.07
2023-03-27T04:32:59.876Z,10.20
2023-03-27T04:35:27.792Z,5.33
2023-03-27T04:37:56.768Z,9.07
2023-03-27T04:40:25.283Z,11.80
2023-03-27T04:42:55.784Z,5.80
2023-03-27T04:45:25.600Z,9.33
2023-03-27T04:47:54.447Z,6.07
2023-03-27T04:50:22.274Z,4.77
2023-03-27T04:52:51.630Z,7.47
2023-03-27T04:55:22.907Z,11.60
2023-03-27T04:57:50.660Z,7.10
2023-03-27T05:00:19.770Z,12.27
2023-03-27T05:02:48.529Z,8.17
2023-03-27T05:05:16.938Z,5.87
2023-03-27T05:07:46.129Z,12.67
2023-03-27T05:10:14.512Z,10.07
2023-03-27T05:12:45.326Z,10.30
2023-03-27T05:15:13.373Z,9.33
2023-03-27T05:17:42.134Z,10.40
2023-03-27T05:20:12.340Z,7.53
2023-03-27T05:22:39.993Z,7.70
2023-03-27T05:25:08.651Z,13.60
2023-03-27T05:27:36.474Z,8.43
2023-03-27T05:30:06.443Z,8.10
2023-03-27T05:32:35.521Z,9.07
2023-03-27T05:35:05.286Z,8.27
2023-03-27T05:37:33.737Z,15.10
2023-03-27T05:40:01.365Z,4.93
2023-03-27T05:42:29.020Z,6.30
2023-03-27T05:44:56.696Z,9.30
2023-03-27T05:47:25.759Z,13.83
2023-03-27T05:49:53.395Z,11.07
2023-03-27T05:52:20.942Z,10.50
2023-03-27T05:54:56.818Z,7.30
2023-03-27T05:57:24.396Z,10.73
2023-03-27T05:59:52.709Z,11.27
2023-03-27T06:02:21.646Z,9.53
2023-03-27T06:04:52.200Z,5.90
2023-03-27T06:07:20.254Z,8.97
2023-03-27T06:09:47.860Z,7.70
2023-03-27T06:12:16.296Z,7.03
2023-03-27T06:14:43.865Z,12.80
2023-03-27T06:17:11.632Z,8.43
2023-03-27T06:19:39.233Z,13.37
2023-03-27T06:22:09.028Z,9.07
2023-03-27T06:24:36.678Z,8.73
2023-03-27T06:27:04.554Z,7.50
2023-03-27T06:29:32.218Z,8.07
2023-03-27T06:32:01.559Z,7.57
2023-03-27T06:34:29.181Z,9.27
2023-03-27T06:36:59.965Z,8.63
2023-03-27T06:39:29.042Z,12.00
2023-03-27T06:41:56.704Z,4.57
2023-03-27T06:44:24.257Z,11.67
2023-03-27T06:46:51.914Z,8.13
2023-03-27T06:49:19.488Z,14.93
2023-03-27T06:51:47.104Z,7.17
2023-03-27T06:54:14.723Z,13.63
2023-03-27T06:56:44.524Z,8.00
2023-03-27T06:59:12.207Z,12.07
2023-03-27T07:01:39.869Z,5.93
2023-03-27T07:04:07.622Z,8.70
2023-03-27T07:06:35.254Z,5.07
2023-03-27T07:09:02.918Z,10.47
2023-03-27T07:11:32.052Z,9.93
2023-03-27T07:14:01.403Z,10.03
2023-03-27T07:16:29.144Z,6.20
2023-03-27T07:18:58.370Z,11.73
2023-03-27T07:21:27.812Z,11.03
2023-03-27T07:23:55.400Z,8.07
2023-03-27T07:26:23.418Z,9.77
2023-03-27T07:28:51.709Z,6.57
2023-03-27T07:31:35.005Z,6.13
2023-03-27T07:34:05.521Z,13.77
2023-03-27T07:36:33.694Z,9.50
2023-03-27T07:39:01.363Z,8.90
2023-03-27T07:41:30.167Z,8.27
2023-03-27T07:43:57.912Z,8.17
2023-03-27T07:46:28.013Z,11.47
2023-03-27T07:48:56.599Z,5.90
2023-03-27T07:51:24.197Z,15.00
2023-03-27T07:53:56.513Z,9.13
2023-03-27T07:56:24.550Z,13.53
2023-03-27T07:58:53.056Z,11.87
2023-03-27T08:01:20.618Z,10.67
2023-03-27T08:03:49.732Z,13.03
2023-03-27T08:06:17.587Z,7.07
2023-03-27T08:08:45.548Z,9.57
2023-03-27T08:11:23.065Z,8.40
2023-03-27T08:13:58.311Z,9.13
2023-03-27T08:16:28.953Z,8.70
2023-03-27T08:18:58.583Z,7.60
2023-03-27T08:21:26.157Z,7.67
2023-03-27T08:23:57.381Z,11.17
2023-03-27T08:26:26.446Z,4.13
2023-03-27T08:28:55.970Z,8.87
2023-03-27T08:31:24.017Z,5.60
2023-03-27T08:33:51.897Z,6.03
2023-03-27T08:36:20.955Z,7.17
2023-03-27T08:38:49.067Z,10.17
2023-03-27T08:41:27.037Z,8.83
2023-03-27T08:43:57.158Z,7.93
2023-03-27T08:46:28.733Z,6.90
2023-03-27T08:48:58.955Z,5.13
2023-03-27T08:51:29.110Z,6.30
2023-03-27T08:53:59.095Z,6.60
2023-03-27T08:56:27.296Z,6.80
2023-03-27T08:58:55.301Z,9.80
2023-03-27T09:01:29.388Z,5.57
2023-03-27T09:04:01.850Z,5.43
2023-03-27T09:06:38.179Z,5.53
2023-03-27T09:09:10.739Z,6.53
2023-03-27T09:11:47.971Z,3.97
2023-03-27T09:14:23.867Z,11.37
2023-03-27T09:16:52.939Z,7.90
2023-03-27T09:19:23.768Z,8.17
2023-03-27T09:21:57.934Z,7.20
2023-03-27T09:24:30.355Z,10.00
2023-03-27T09:27:06.617Z,9.07
2023-03-27T09:29:37.905Z,11.07
2023-03-27T09:32:11.825Z,10.90
2023-03-27T09:34:39.371Z,5.53
2023-03-27T09:37:11.914Z,5.60
2023-03-27T09:39:42.806Z,7.03
2023-03-27T09:42:17.263Z,5.00
2023-03-27T09:44:47.239Z,15.63
2023-03-27T09:47:16.516Z,4.80
2023-03-27T09:49:49.151Z,9.73
2023-03-27T09:52:35.454Z,4.33
2023-03-27T09:55:03.822Z,2.43
2023-03-27T09:57:33.822Z,5.30
2023-03-27T10:00:09.762Z,6.07
2023-03-27T10:02:38.087Z,4.90
2023-03-27T10:05:12.220Z,5.20
2023-03-27T10:07:42.383Z,3.30
2023-03-27T10:10:12.574Z,3.13
2023-03-27T10:12:40.555Z,2.70
2023-03-27T10:15:27.877Z,0.90
2023-03-27T10:17:55.882Z,5.10
2023-03-27T10:20:24.299Z,2.47
2023-03-27T10:22:55.667Z,2.83
2023-03-27T10:25:28.881Z,1.73
2023-03-27T10:28:09.099Z,2.67
2023-03-27T10:30:38.111Z,1.93
2023-03-27T10:33:06.135Z,2.03
2023-03-27T10:35:36.760Z,5.87
2023-03-27T10:38:11.452Z,3.70
2023-03-27T10:40:40.949Z,5.00
2023-03-27T10:43:12.867Z,4.00
2023-03-27T10:45:46.783Z,4.90
2023-03-27T10:48:20.136Z,5.13
2023-03-27T10:50:53.360Z,3.87
2023-03-27T10:53:25.476Z,5.10
2023-03-27T10:56:00.602Z,6.83
2023-03-27T10:58:34.125Z,6.73
2023-03-27T11:01:07.329Z,3.03
2023-03-27T11:03:38.685Z,4.13
2023-03-27T11:06:09.105Z,5.93
2023-03-27T11:08:47.982Z,3.00
2023-03-27T11:11:19.356Z,4.93
2023-03-27T11:13:48.252Z,3.23
2023-03-27T11:16:19.573Z,5.23
2023-03-27T11:18:51.090Z,4.83
2023-03-27T11:21:23.158Z,2.17
2023-03-27T11:23:55.862Z,3.33
2023-03-27T11:26:29.318Z,3.87
2023-03-27T11:28:59.074Z,3.90
2023-03-27T11:31:39.224Z,3.93
2023-03-27T11:34:12.338Z,7.50
2023-03-27T11:36:45.849Z,3.27
2023-03-27T11:39:22.618Z,2.30
2023-03-27T11:41:54.574Z,2.80
2023-03-27T11:44:22.548Z,2.80
2023-03-27T11:47:01.275Z,5.13
2023-03-27T11:49:47.765Z,2.83
2023-03-27T11:52:24.989Z,4.87
2023-03-27T11:55:09.986Z,3.47
2023-03-27T11:57:44.008Z,4.03
2023-03-27T12:00:18.325Z,2.23
2023-03-27T12:03:21.929Z,3.67
2023-03-27T12:06:10.319Z,3.77
2023-03-27T12:08:48.262Z,3.73
2023-03-27T12:11:17.867Z,2.77
2023-03-27T12:14:05.394Z,3.57
2023-03-27T12:17:01.228Z,4.10
2023-03-27T12:19:43.005Z,2.10
2023-03-27T12:22:23.909Z,0.97
2023-03-27T12:25:02.003Z,2.10
2023-03-27T12:27:53.394Z,2.00
2023-03-27T12:30:27.660Z,2.50
2023-03-27T12:33:29.931Z,2.33
2023-03-27T12:35:59.562Z,0.90
2023-03-27T12:38:29.663Z,2.80
2023-03-27T12:41:03.938Z,3.20
2023-03-27T12:43:39.323Z,2.83
2023-03-27T12:46:17.086Z,3.50
2023-03-27T12:48:56.046Z,2.17
2023-03-27T12:51:38.778Z,3.47
2023-03-27T12:54:15.811Z,3.10
2023-03-27T12:56:43.708Z,4.30
2023-03-27T12:59:20.998Z,3.30
2023-03-27T13:02:30.804Z,3.30
2023-03-27T13:05:36.085Z,3.97
2023-03-27T13:08:16.883Z,1.70
2023-03-27T13:10:53.492Z,3.33
2023-03-27T13:13:44.365Z,2.03
2023-03-27T13:16:28.193Z,2.73
2023-03-27T13:19:06.431Z,2.30
2023-03-27T13:21:39.489Z,3.27
2023-03-27T13:24:20.298Z,3.20
2023-03-27T13:27:00.457Z,1.63
2023-03-27T13:29:32.538Z,2.70
2023-03-27T13:32:03.622Z,2.40
2023-03-27T13:34:41.721Z,2.20
2023-03-27T13:37:59.028Z,3.37
2023-03-27T13:40:31.162Z,2.83
2023-03-27T13:43:18.005Z,3.53
2023-03-27T13:45:48.480Z,1.97
2023-03-27T13:48:50.439Z,4.80
2023-03-27T13:51:35.330Z,5.57
2023-03-27T13:54:35.472Z,3.43
2023-03-27T13:57:14.126Z,3.23
2023-03-27T13:59:59.384Z,4.50
2023-03-27T14:02:48.143Z,2.93
2023-03-27T14:05:30.061Z,4.23
2023-03-27T14:08:30.189Z,4.13
2023-03-27T14:11:23.709Z,2.67
2023-03-27T14:14:03.964Z,2.03
2023-03-27T14:16:53.235Z,2.90
2023-03-27T14:19:33.459Z,2.60
2023-03-27T14:22:03.451Z,4.03
2023-03-27T14:24:37.612Z,2.80
2023-03-27T14:27:06.998Z,2.20
2023-03-27T14:29:34.778Z,3.20
2023-03-27T14:32:03.926Z,3.90
2023-03-27T14:34:47.099Z,3.37
2023-03-27T14:37:29.240Z,4.10
2023-03-27T14:40:00.506Z,3.27
2023-03-27T14:42:32.050Z,1.87
2023-03-27T14:45:11.468Z,3.50
2023-03-27T14:47:39.252Z,3.77
2023-03-27T14:50:07.594Z,2.90
2023-03-27T14:52:36.175Z,2.63
2023-03-27T14:55:06.250Z,2.80
2023-03-27T14:57:34.155Z,2.67
2023-03-27T15:00:06.580Z,2.50
2023-03-27T15:02:37.422Z,2.63
2023-03-27T15:05:09.597Z,6.93
2023-03-27T15:07:37.798Z,4.37
2023-03-27T15:10:22.463Z,3.03
2023-03-27T15:12:50.215Z,1.70
2023-03-27T15:15:23.390Z,3.03
2023-03-27T15:17:54.685Z,1.93
2023-03-27T15:20:25.141Z,5.30
2023-03-27T15:22:59.255Z,2.50
2023-03-27T15:25:34.250Z,2.90
2023-03-27T15:28:06.991Z,2.07
2023-03-27T15:30:37.317Z,2.30
2023-03-27T15:33:06.148Z,2.07
2023-03-27T15:35:35.604Z,2.00
2023-03-27T15:38:03.697Z,1.83
2023-03-27T15:40:36.614Z,1.47
2023-03-27T15:43:07.729Z,1.60
2023-03-27T15:45:38.191Z,3.70
2023-03-27T15:48:07.902Z,1.20
2023-03-27T15:50:35.771Z,2.43
2023-03-27T15:53:03.696Z,2.43
2023-03-27T15:55:38.770Z,2.97
2023-03-27T15:58:17.571Z,2.70
2023-03-27T16:00:47.440Z,2.43
2023-03-27T16:03:18.961Z,1.67
2023-03-27T16:05:48.185Z,1.30
2023-03-27T16:08:28.286Z,2.40
2023-03-27T16:10:58.384Z,1.53
2023-03-27T16:13:28.438Z,4.10
2023-03-27T16:16:00.573Z,1.77
2023-03-27T16:18:32.248Z,2.30
2023-03-27T16:21:08.078Z,2.07
2023-03-27T16:23:35.899Z,4.07
2023-03-27T16:26:06.727Z,1.87
2023-03-27T16:28:34.777Z,1.77
2023-03-27T16:31:11.269Z,4.63
2023-03-27T16:33:38.940Z,0.80
2023-03-27T16:36:07.363Z,1.23
2023-03-27T16:38:39.717Z,1.33
2023-03-27T16:41:13.347Z,1.20
2023-03-27T16:43:42.219Z,1.60
2023-03-27T16:46:17.065Z,1.97
2023-03-27T16:48:47.431Z,1.57
2023-03-27T16:51:16.108Z,0.80
2023-03-27T16:53:44.726Z,1.43
2023-03-27T16:56:14.240Z,0.93
2023-03-27T16:58:43.041Z,1.03
2023-03-27T17:01:11.193Z,2.60
2023-03-27T17:03:40.066Z,1.70
2023-03-27T17:06:10.208Z,1.37
2023-03-27T17:08:38.188Z,0.90
2023-03-27T17:11:08.150Z,3.47
2023-03-27T17:13:37.391Z,0.90
2023-03-27T17:16:06.315Z,1.00
2023-03-27T17:18:34.059Z,2.87
2023-03-27T17:21:01.706Z,1.83
2023-03-27T17:23:29.301Z,1.53
2023-03-27T17:26:00.638Z,2.53
2023-03-27T17:28:28.313Z,2.93
2023-03-27T17:31:04.518Z,2.07
2023-03-27T17:33:33.475Z,1.83
2023-03-27T17:36:02.116Z,2.03
2023-03-27T17:38:30.662Z,4.90
2023-03-27T17:40:58.856Z,1.70
2023-03-27T17:43:26.452Z,1.30
2023-03-27T17:45:54.770Z,2.23
2023-03-27T17:48:23.892Z,2.70
2023-03-27T17:51:05.257Z,1.00
2023-03-27T17:53:36.331Z,5.27
2023-03-27T17:56:03.951Z,1.27
2023-03-27T17:58:34.083Z,3.57
2023-03-27T18:01:03.253Z,3.70
2023-03-27T18:03:33.791Z,2.43
2023-03-27T18:06:03.808Z,3.40
2023-03-27T18:08:31.905Z,1.60
2023-03-27T18:10:59.594Z,3.43
2023-03-27T18:13:27.869Z,3.13
2023-03-27T18:15:57.819Z,3.63
2023-03-27T18:18:25.766Z,3.73
2023-03-27T18:20:55.216Z,4.20
2023-03-27T18:23:23.070Z,3.03
2023-03-27T18:25:50.643Z,2.90
2023-03-27T18:28:18.315Z,1.83
2023-03-27T18:30:46.455Z,1.83
2023-03-27T18:33:14.674Z,1.53
2023-03-27T18:35:42.685Z,1.60
2023-03-27T18:38:12.067Z,2.47
2023-03-27T18:40:39.616Z,4.13
2023-03-27T18:43:07.351Z,2.27
2023-03-27T18:45:35.570Z,3.50
2023-03-27T18:48:03.286Z,3.07
2023-03-27T18:50:30.831Z,4.00
2023-03-27T18:52:58.437Z,4.47
2023-03-27T18:55:27.440Z,1.87
2023-03-27T18:57:55.159Z,1.47
2023-03-27T19:00:23.219Z,3.67
2023-03-27T19:02:51.089Z,3.57
2023-03-27T19:05:18.965Z,6.73
2023-03-27T19:07:46.950Z,4.20
2023-03-27T19:10:14.679Z,3.73
2023-03-27T19:12:43.564Z,7.33
2023-03-27T19:15:19.848Z,2.30
2023-03-27T19:17:48.479Z,2.63
2023-03-27T19:20:16.233Z,2.67
2023-03-27T19:22:43.823Z,4.17
2023-03-27T19:25:11.439Z,2.03
2023-03-27T19:27:39.414Z,2.17
2023-03-27T19:30:10.375Z,3.00
2023-03-27T19:32:38.272Z,3.97
2023-03-27T19:35:07.025Z,2.67
2023-03-27T19:37:34.648Z,1.87
2023-03-27T19:40:02.391Z,2.90
2023-03-27T19:42:30.087Z,5.00
2023-03-27T19:44:58.027Z,1.50
2023-03-27T19:47:27.106Z,5.33
2023-03-27T19:49:54.992Z,2.53
2023-03-27T19:52:23.002Z,1.40
2023-03-27T19:54:50.673Z,4.43
2023-03-27T19:57:18.484Z,3.13
2023-03-27T19:59:46.526Z,2.33
2023-03-27T20:02:14.517Z,3.60
2023-03-27T20:04:43.587Z,2.70
2023-03-27T20:07:11.180Z,3.40
2023-03-27T20:09:38.914Z,3.23
2023-03-27T20:12:07.430Z,4.10
2023-03-27T20:14:35.018Z,3.73
2023-03-27T20:17:02.605Z,4.33
2023-03-27T20:19:31.203Z,7.60
2023-03-27T20:22:00.222Z,9.10
2023-03-27T20:24:28.845Z,3.30
2023-03-27T20:26:58.330Z,5.03
2023-03-27T20:29:26.488Z,4.70
2023-03-27T20:31:54.124Z,3.50
2023-03-27T20:34:22.555Z,5.60
2023-03-27T20:36:53.264Z,2.17
2023-03-27T20:39:22.992Z,3.97
2023-03-27T20:41:51.245Z,5.90
2023-03-27T20:44:19.029Z,7.23
2023-03-27T20:46:51.080Z,10.83
2023-03-27T20:51:57.100Z,10.97
2023-03-27T20:54:27.215Z,7.53
2023-03-27T20:56:55.056Z,2.93
2023-03-27T20:59:22.992Z,6.47
2023-03-27T21:01:50.794Z,2.43
2023-03-27T21:04:18.507Z,2.07
2023-03-27T21:06:46.177Z,4.03
2023-03-27T21:09:14.607Z,4.67
2023-03-27T21:11:47.418Z,2.33
2023-03-27T21:14:15.046Z,2.90
2023-03-27T21:16:42.869Z,3.80
2023-03-27T21:19:11.882Z,1.43
2023-03-27T21:21:39.900Z,3.60
2023-03-27T21:24:07.975Z,5.67
2023-03-27T21:26:36.272Z,5.27
2023-03-27T21:29:05.559Z,7.90
2023-03-27T21:31:33.370Z,7.20
2023-03-27T21:34:01.004Z,2.93
2023-03-27T21:36:29.814Z,4.67
2023-03-27T21:38:57.942Z,4.93
2023-03-27T21:41:26.629Z,2.20
2023-03-27T21:43:54.248Z,2.80
2023-03-27T21:46:23.289Z,3.93
2023-03-27T21:48:51.181Z,3.97
2023-03-27T21:51:19.249Z,3.53
2023-03-27T21:53:47.458Z,7.10
2023-03-27T21:56:15.229Z,2.20
2023-03-27T21:58:42.903Z,6.27
2023-03-27T22:01:10.812Z,6.97
2023-03-27T22:03:39.823Z,3.07
2023-03-27T22:06:12.153Z,2.67
2023-03-27T22:08:41.612Z,2.20
2023-03-27T22:11:10.088Z,6.40
2023-03-27T22:13:38.725Z,4.53
2023-03-27T22:16:09.392Z,5.83
2023-03-27T22:18:37.077Z,6.93
2023-03-27T22:21:15.342Z,9.20
2023-03-27T22:23:43.018Z,8.20
2023-03-27T22:26:11.177Z,5.67
2023-03-27T22:28:38.881Z,8.93
2023-03-27T22:31:07.481Z,3.13
2023-03-27T22:33:35.437Z,6.23
2023-03-27T22:36:03.391Z,3.60
2023-03-27T22:38:33.467Z,3.80
2023-03-27T22:41:01.394Z,5.63
2023-03-27T22:43:29.839Z,3.93
2023-03-27T22:45:58.096Z,10.33
2023-03-27T22:48:26.020Z,3.57
2023-03-27T22:50:58.050Z,5.10
2023-03-27T22:53:26.901Z,6.13
2023-03-27T22:55:59.107Z,3.77
2023-03-27T22:58:27.423Z,6.53
2023-03-27T23:00:56.224Z,8.63
2023-03-27T23:03:24.714Z,2.93
2023-03-27T23:05:53.282Z,5.40
2023-03-27T23:08:23.864Z,4.83
2023-03-27T23:10:57.248Z,5.23
2023-03-27T23:13:25.360Z,6.97
2023-03-27T23:15:53.004Z,3.83
2023-03-27T23:18:23.842Z,3.20
2023-03-27T23:20:55.061Z,2.47
2023-03-27T23:23:23.102Z,3.70
2023-03-27T23:25:51.594Z,6.60
2023-03-27T23:28:20.660Z,4.63
2023-03-27T23:30:53.572Z,3.80
2023-03-27T23:33:22.844Z,3.77
2023-03-27T23:35:50.547Z,3.37
2023-03-27T23:38:18.441Z,4.87
2023-03-27T23:40:46.262Z,2.77
2023-03-27T23:43:14.111Z,5.17
2023-03-27T23:45:43.875Z,6.83
2023-03-27T23:48:11.994Z,3.03
2023-03-27T23:50:39.790Z,4.13
2023-03-27T23:53:07.456Z,4.87
2023-03-27T23:55:35.247Z,4.07
2023-03-27T23:58:03.375Z,7.87
